createdAt,value
2017-05-24T00:02:00.101Z,91.90
2017-05-24T00:04:28.605Z,91.30
2017-05-24T00:06:57.107Z,92.30
2017-05-24T00:09:25.655Z,93.50
2017-05-24T00:11:54.173Z,94.40
2017-05-24T00:14:22.676Z,95.30
2017-05-24T00:16:51.220Z,96.10
2017-05-24T00:19:19.725Z,96.80
2017-05-24T00:21:48.236Z,98.00
2017-05-24T00:24:17.032Z,98.70
2017-05-24T00:26:45.544Z,99.90
2017-05-24T00:29:14.048Z,99.90
2017-05-24T00:31:42.599Z,99.90
2017-05-24T00:34:11.103Z,99.90
2017-05-24T00:36:39.632Z,99.90
2017-05-24T00:39:08.181Z,99.90
2017-05-24T00:41:36.688Z,99.90
2017-05-24T00:44:05.200Z,99.90
2017-05-24T00:46:33.749Z,99.90
2017-05-24T00:49:02.252Z,99.90
2017-05-24T00:51:30.754Z,99.90
2017-05-24T00:53:59.298Z,99.90
2017-05-24T00:56:27.799Z,99.90
2017-05-24T00:58:56.309Z,99.90
2017-05-24T01:01:24.849Z,99.90
2017-05-24T01:03:53.351Z,99.90
2017-05-24T01:06:21.855Z,99.90
2017-05-24T01:08:50.401Z,99.90
2017-05-24T01:11:18.940Z,99.90
2017-05-24T01:13:47.443Z,99.90
2017-05-24T01:16:16.199Z,99.90
2017-05-24T01:18:44.708Z,99.90
2017-05-24T01:21:13.212Z,99.90
2017-05-24T01:23:41.765Z,99.90
2017-05-24T01:26:10.276Z,99.90
2017-05-24T01:28:38.783Z,99.90
2017-05-24T01:31:07.336Z,99.90
2017-05-24T01:33:35.844Z,99.90
2017-05-24T01:36:04.371Z,99.90
2017-05-24T01:38:32.919Z,99.90
2017-05-24T01:41:01.479Z,99.90
2017-05-24T01:43:29.988Z,99.90
2017-05-24T01:45:58.556Z,99.90
2017-05-24T01:48:27.075Z,99.90
2017-05-24T01:50:55.591Z,99.90
2017-05-24T01:53:24.142Z,99.90
2017-05-24T01:55:52.657Z,99.90
2017-05-24T01:58:21.176Z,99.90
2017-05-24T02:00:49.721Z,99.90
2017-05-24T02:03:18.227Z,99.90
2017-05-24T02:05:46.733Z,99.90
2017-05-24T02:08:15.292Z,99.90
2017-05-24T02:10:43.799Z,99.90
2017-05-24T02:13:12.323Z,99.90
2017-05-24T02:15:40.871Z,99.90
2017-05-24T02:18:09.375Z,99.90
2017-05-24T02:20:37.879Z,99.90
2017-05-24T02:23:06.422Z,99.90
2017-05-24T02:25:34.932Z,99.90
2017-05-24T02:28:03.444Z,99.90
2017-05-24T02:30:31.993Z,99.90
2017-05-24T02:33:00.503Z,99.90
2017-05-24T02:35:29.003Z,99.90
2017-05-24T02:37:57.553Z,99.90
2017-05-24T02:40:26.059Z,99.90
2017-05-24T02:42:54.577Z,99.90
2017-05-24T02:45:23.126Z,99.90
2017-05-24T02:47:51.639Z,99.90
2017-05-24T02:50:20.153Z,99.90
2017-05-24T02:52:48.696Z,99.90
2017-05-24T02:55:17.202Z,99.90
2017-05-24T02:57:45.712Z,99.90
2017-05-24T03:00:14.264Z,99.90
2017-05-24T03:02:42.780Z,99.90
2017-05-24T03:05:11.283Z,99.90
2017-05-24T03:07:39.832Z,99.90
2017-05-24T03:10:08.339Z,99.90
2017-05-24T03:12:36.851Z,99.90
2017-05-24T03:15:05.405Z,99.90
2017-05-24T03:17:33.906Z,99.90
2017-05-24T03:20:02.408Z,99.90
2017-05-24T03:22:30.961Z,99.90
2017-05-24T03:24:59.472Z,99.90
2017-05-24T03:27:27.999Z,99.90
2017-05-24T03:29:56.543Z,99.90
2017-05-24T03:32:25.048Z,99.90
2017-05-24T03:34:53.557Z,99.90
2017-05-24T03:37:22.103Z,99.90
2017-05-24T03:39:50.607Z,99.90
2017-05-24T03:42:19.132Z,99.90
2017-05-24T03:44:47.691Z,99.90
2017-05-24T03:47:16.198Z,99.90
2017-05-24T03:49:44.703Z,99.90
2017-05-24T03:52:13.248Z,99.90
2017-05-24T03:54:41.769Z,99.90
2017-05-24T03:57:10.281Z,99.90
2017-05-24T03:59:38.828Z,99.90
2017-05-24T04:02:07.331Z,99.90
2017-05-24T04:04:35.836Z,99.90
2017-05-24T04:07:04.417Z,99.90
2017-05-24T04:09:32.932Z,99.90
2017-05-24T04:12:01.445Z,99.90
2017-05-24T04:14:30.031Z,99.90
2017-05-24T04:16:58.544Z,99.90
2017-05-24T04:19:27.049Z,99.90
2017-05-24T04:21:55.631Z,99.90
2017-05-24T04:24:24.146Z,99.90
2017-05-24T04:26:52.648Z,99.90
2017-05-24T04:29:21.198Z,99.90
2017-05-24T04:31:49.743Z,99.90
2017-05-24T04:34:18.255Z,99.90
2017-05-24T04:36:46.800Z,99.90
2017-05-24T04:39:15.307Z,99.90
2017-05-24T04:41:43.814Z,99.90
2017-05-24T04:44:12.390Z,99.90
2017-05-24T04:46:40.887Z,99.90
2017-05-24T04:49:09.388Z,99.90
2017-05-24T04:51:37.937Z,99.90
2017-05-24T04:54:06.446Z,99.90
2017-05-24T04:56:34.955Z,99.90
2017-05-24T04:59:03.487Z,99.90
2017-05-24T05:01:31.988Z,99.90
2017-05-24T05:04:00.515Z,99.90
2017-05-24T05:06:29.058Z,99.90
2017-05-24T05:08:57.560Z,99.90
2017-05-24T05:11:26.081Z,99.90
2017-05-24T05:13:54.625Z,99.90
2017-05-24T05:16:23.124Z,99.90
2017-05-24T05:18:51.617Z,99.90
2017-05-24T05:21:20.193Z,99.90
2017-05-24T05:23:48.696Z,99.90
2017-05-24T05:26:17.200Z,99.90
2017-05-24T05:28:45.910Z,99.90
2017-05-24T05:31:14.483Z,99.90
2017-05-24T05:33:42.983Z,99.90
2017-05-24T05:36:11.563Z,99.90
2017-05-24T05:38:40.120Z,99.90
2017-05-24T05:41:08.619Z,99.90
2017-05-24T05:43:37.168Z,99.90
2017-05-24T05:46:05.667Z,99.90
2017-05-24T05:48:34.168Z,99.90
2017-05-24T05:51:02.712Z,99.90
2017-05-24T05:53:31.216Z,99.90
2017-05-24T05:55:59.710Z,99.90
2017-05-24T05:58:28.254Z,99.90
2017-05-24T06:00:56.755Z,99.90
2017-05-24T06:03:25.262Z,99.90
2017-05-24T06:05:53.801Z,99.90
2017-05-24T06:08:22.314Z,99.90
2017-05-24T06:10:50.819Z,99.90
2017-05-24T06:13:19.358Z,99.90
2017-05-24T06:15:47.864Z,99.90
2017-05-24T06:18:16.420Z,99.90
2017-05-24T06:20:44.972Z,99.90
2017-05-24T06:23:13.475Z,99.90
2017-05-24T06:25:41.971Z,99.90
2017-05-24T06:28:10.516Z,99.90
2017-05-24T06:30:39.020Z,99.90
2017-05-24T06:33:07.516Z,99.90
2017-05-24T06:35:36.052Z,99.90
2017-05-24T06:38:04.563Z,99.90
2017-05-24T06:40:33.073Z,99.90
2017-05-24T06:43:01.612Z,99.90
2017-05-24T06:45:30.112Z,99.90
2017-05-24T06:47:58.616Z,99.90
2017-05-24T06:50:27.162Z,99.90
2017-05-24T06:52:55.671Z,99.90
2017-05-24T06:55:24.173Z,99.90
2017-05-24T06:57:52.720Z,99.90
2017-05-24T07:00:21.230Z,99.90
2017-05-24T07:02:49.729Z,99.90
2017-05-24T07:05:18.272Z,99.90
2017-05-24T07:07:46.768Z,99.90
2017-05-24T07:10:15.269Z,99.90
2017-05-24T07:12:43.810Z,99.90
2017-05-24T07:15:12.321Z,99.90
2017-05-24T07:17:40.840Z,99.90
2017-05-24T07:20:09.380Z,99.20
2017-05-24T07:22:37.883Z,98.60
2017-05-24T07:25:06.390Z,98.70
2017-05-24T07:27:34.935Z,98.90
2017-05-24T07:30:03.441Z,98.80
2017-05-24T07:32:31.940Z,98.40
2017-05-24T07:35:00.476Z,98.40
2017-05-24T07:37:28.981Z,97.10
2017-05-24T07:39:57.488Z,96.70
2017-05-24T07:42:26.040Z,96.30
2017-05-24T07:44:54.552Z,95.10
2017-05-24T07:47:23.047Z,95.80
2017-05-24T07:49:51.589Z,95.40
2017-05-24T07:52:20.091Z,95.20
2017-05-24T07:54:48.590Z,93.50
2017-05-24T07:57:17.133Z,94.00
2017-05-24T07:59:45.640Z,93.30
2017-05-24T08:02:14.142Z,93.30
2017-05-24T08:04:42.685Z,94.00
2017-05-24T08:07:11.186Z,93.90
2017-05-24T08:09:39.703Z,94.20
2017-05-24T08:12:08.240Z,94.80
2017-05-24T08:14:36.741Z,94.90
2017-05-24T08:17:05.243Z,95.30
2017-05-24T08:19:33.784Z,95.80
2017-05-24T08:22:02.289Z,96.10
2017-05-24T08:24:30.789Z,96.50
2017-05-24T08:26:59.335Z,95.90
2017-05-24T08:29:27.836Z,96.50
2017-05-24T08:31:56.344Z,96.80
2017-05-24T08:34:24.898Z,97.10
2017-05-24T08:36:53.391Z,97.50
2017-05-24T08:39:21.893Z,97.10
2017-05-24T08:41:50.437Z,96.60
2017-05-24T08:44:18.935Z,96.40
2017-05-24T08:46:47.453Z,95.50
2017-05-24T08:49:15.989Z,95.40
2017-05-24T08:51:44.491Z,95.60
2017-05-24T08:54:12.994Z,95.90
2017-05-24T08:56:41.536Z,95.30
2017-05-24T08:59:10.040Z,95.00
2017-05-24T09:01:38.536Z,93.90
2017-05-24T09:04:07.074Z,93.20
2017-05-24T09:06:35.585Z,93.50
2017-05-24T09:09:04.117Z,93.60
2017-05-24T09:11:32.667Z,93.60
2017-05-24T09:14:01.168Z,93.80
2017-05-24T09:16:29.672Z,93.30
2017-05-24T09:18:58.211Z,93.60
2017-05-24T09:21:26.714Z,93.60
2017-05-24T09:23:55.218Z,92.20
2017-05-24T09:26:23.755Z,92.30
2017-05-24T09:28:52.265Z,91.80
2017-05-24T09:31:20.767Z,91.30
2017-05-24T09:33:49.340Z,91.00
2017-05-24T09:36:17.841Z,90.00
2017-05-24T09:38:46.346Z,90.20
2017-05-24T09:41:14.888Z,91.60
2017-05-24T09:43:43.388Z,92.50
2017-05-24T09:46:11.897Z,93.50
2017-05-24T09:48:40.441Z,94.00
2017-05-24T09:51:08.954Z,93.50
2017-05-24T09:53:37.452Z,92.90
2017-05-24T09:56:05.993Z,92.40
2017-05-24T09:58:34.497Z,90.70
2017-05-24T10:01:03.005Z,89.70
2017-05-24T10:03:31.539Z,88.10
2017-05-24T10:06:00.041Z,82.30
2017-05-24T10:08:28.535Z,80.90
2017-05-24T10:10:57.078Z,75.20
2017-05-24T10:13:25.582Z,70.70
2017-05-24T10:15:54.090Z,68.60
2017-05-24T10:18:22.629Z,65.10
2017-05-24T10:20:51.123Z,60.90
2017-05-24T10:23:19.625Z,61.20
2017-05-24T10:25:48.164Z,59.30
2017-05-24T10:28:16.672Z,60.40
2017-05-24T10:30:45.167Z,60.20
2017-05-24T10:33:13.704Z,61.70
2017-05-24T10:35:42.212Z,60.70
2017-05-24T10:38:10.716Z,58.10
2017-05-24T10:40:45.089Z,57.60
2017-05-24T10:43:13.593Z,56.60
2017-05-24T10:45:42.097Z,55.40
2017-05-24T10:48:10.633Z,55.80
2017-05-24T10:50:39.140Z,55.80
2017-05-24T10:53:07.641Z,56.40
2017-05-24T10:55:36.183Z,57.20
2017-05-24T10:58:04.688Z,54.10
2017-05-24T11:00:33.188Z,55.20
2017-05-24T11:03:01.887Z,55.70
2017-05-24T11:05:30.387Z,55.50
2017-05-24T11:07:58.893Z,54.90
2017-05-24T11:10:27.435Z,55.40
2017-05-24T11:12:55.927Z,52.80
2017-05-24T11:15:24.428Z,52.80
2017-05-24T11:17:52.968Z,51.50
2017-05-24T11:20:21.472Z,50.50
2017-05-24T11:22:49.971Z,52.80
2017-05-24T11:25:18.508Z,50.70
2017-05-24T11:27:47.012Z,49.50
2017-05-24T11:30:15.516Z,50.10
2017-05-24T11:32:44.057Z,48.80
2017-05-24T11:35:12.565Z,48.30
2017-05-24T11:37:41.073Z,47.40
2017-05-24T11:40:09.617Z,45.60
2017-05-24T11:42:38.125Z,43.10
2017-05-24T11:45:06.627Z,44.00
2017-05-24T11:47:35.172Z,42.60
2017-05-24T11:50:03.672Z,43.10
2017-05-24T11:52:32.167Z,43.40
2017-05-24T11:55:00.705Z,42.10
2017-05-24T11:57:29.204Z,42.20
2017-05-24T11:59:57.705Z,43.60
2017-05-24T12:02:26.252Z,44.20
2017-05-24T12:04:54.754Z,44.70
2017-05-24T12:07:23.255Z,45.20
2017-05-24T12:09:51.796Z,44.20
2017-05-24T12:12:20.301Z,47.40
2017-05-24T12:14:48.803Z,46.90
2017-05-24T12:17:17.341Z,49.20
2017-05-24T12:19:45.842Z,50.00
2017-05-24T12:22:14.361Z,48.40
2017-05-24T12:24:42.905Z,48.50
2017-05-24T12:27:11.434Z,48.00
2017-05-24T12:29:39.954Z,47.00
2017-05-24T12:32:08.500Z,47.20
2017-05-24T12:34:37.001Z,46.60
2017-05-24T12:37:05.505Z,46.80
2017-05-24T12:39:34.050Z,47.10
2017-05-24T12:42:02.563Z,47.60
2017-05-24T12:44:31.073Z,47.70
2017-05-24T12:46:59.612Z,47.00
2017-05-24T12:49:28.113Z,46.40
2017-05-24T12:51:56.616Z,46.20
2017-05-24T12:54:25.157Z,45.60
2017-05-24T12:56:53.691Z,46.10
2017-05-24T12:59:22.192Z,45.90
2017-05-24T13:01:50.744Z,47.00
2017-05-24T13:04:19.244Z,46.70
2017-05-24T13:06:47.760Z,47.30
2017-05-24T13:09:16.313Z,47.00
2017-05-24T13:11:44.816Z,48.00
2017-05-24T13:14:13.323Z,48.40
2017-05-24T13:16:41.865Z,48.70
2017-05-24T13:19:10.360Z,50.60
2017-05-24T13:21:38.854Z,51.30
2017-05-24T13:24:07.397Z,51.70
2017-05-24T13:26:35.911Z,51.60
2017-05-24T13:29:04.431Z,52.20
2017-05-24T13:31:32.972Z,49.50
2017-05-24T13:34:01.474Z,47.10
2017-05-24T13:36:29.978Z,47.60
2017-05-24T13:38:58.519Z,47.90
2017-05-24T13:41:27.032Z,49.10
2017-05-24T13:43:55.537Z,50.90
2017-05-24T13:46:24.091Z,50.60
2017-05-24T13:48:52.593Z,51.70
2017-05-24T13:51:21.105Z,52.80
2017-05-24T13:53:49.647Z,52.30
2017-05-24T13:56:18.146Z,52.90
2017-05-24T13:58:46.652Z,53.30
2017-05-24T14:01:15.196Z,53.50
2017-05-24T14:03:43.692Z,53.90
2017-05-24T14:06:12.204Z,52.40
2017-05-24T14:08:40.752Z,52.60
2017-05-24T14:11:09.255Z,52.90
2017-05-24T14:13:37.761Z,52.90
2017-05-24T14:16:06.300Z,52.90
2017-05-24T14:18:34.827Z,53.00
2017-05-24T14:21:03.320Z,52.30
2017-05-24T14:23:31.860Z,53.40
2017-05-24T14:26:00.362Z,52.60
2017-05-24T14:28:28.864Z,54.10
2017-05-24T14:30:57.404Z,53.00
2017-05-24T14:33:25.901Z,54.10
2017-05-24T14:35:54.413Z,54.50
2017-05-24T14:38:22.963Z,54.10
2017-05-24T14:40:51.464Z,55.60
2017-05-24T14:43:19.968Z,55.00
2017-05-24T14:45:48.512Z,54.60
2017-05-24T14:48:17.019Z,54.70
2017-05-24T14:50:45.520Z,55.20
2017-05-24T14:53:14.061Z,55.10
2017-05-24T14:55:42.564Z,55.40
2017-05-24T14:58:11.091Z,56.30
2017-05-24T15:00:39.683Z,56.10
2017-05-24T15:03:08.180Z,56.80
2017-05-24T15:05:36.680Z,57.30
2017-05-24T15:08:05.224Z,58.00
2017-05-24T15:10:33.727Z,57.90
2017-05-24T15:13:02.229Z,60.00
2017-05-24T15:15:30.780Z,59.40
2017-05-24T15:17:59.279Z,61.10
2017-05-24T15:20:27.793Z,61.70
2017-05-24T15:22:55.571Z,61.60
2017-05-24T15:25:24.079Z,61.40
2017-05-24T15:27:52.591Z,61.30
2017-05-24T15:30:21.128Z,62.20
2017-05-24T15:32:49.625Z,62.60
2017-05-24T15:35:18.132Z,62.60
2017-05-24T15:37:46.673Z,63.20
2017-05-24T15:40:15.181Z,63.00
2017-05-24T15:42:43.683Z,63.40
2017-05-24T15:45:12.229Z,63.40
2017-05-24T15:47:40.724Z,64.00
2017-05-24T15:50:09.224Z,64.60
2017-05-24T15:52:37.773Z,66.60
2017-05-24T15:55:06.277Z,68.10
2017-05-24T15:57:34.772Z,69.60
2017-05-24T16:00:03.311Z,70.90
2017-05-24T16:02:31.811Z,71.60
2017-05-24T16:05:00.319Z,73.70
2017-05-24T16:07:28.889Z,75.20
2017-05-24T16:09:57.392Z,78.60
2017-05-24T16:12:25.910Z,83.60
2017-05-24T16:14:54.455Z,87.20
2017-05-24T16:17:23.007Z,90.30
2017-05-24T16:19:51.516Z,91.00
2017-05-24T16:22:20.054Z,92.30
2017-05-24T16:24:48.589Z,94.60
2017-05-24T16:27:17.091Z,96.90
2017-05-24T16:29:45.637Z,97.10
2017-05-24T16:32:14.149Z,97.30
2017-05-24T16:34:42.651Z,98.50
2017-05-24T16:37:11.194Z,99.90
2017-05-24T16:39:39.694Z,99.90
2017-05-24T16:42:08.196Z,99.90
2017-05-24T16:44:36.761Z,99.90
2017-05-24T16:47:05.269Z,99.90
2017-05-24T16:49:33.771Z,99.90
2017-05-24T16:52:02.317Z,99.90
2017-05-24T16:54:30.817Z,99.90
2017-05-24T16:56:59.314Z,99.90
2017-05-24T16:59:27.857Z,99.90
2017-05-24T17:01:56.365Z,99.90
2017-05-24T17:04:24.864Z,99.90
2017-05-24T17:06:53.417Z,99.90
2017-05-24T17:09:21.916Z,99.90
2017-05-24T17:11:50.424Z,99.90
2017-05-24T17:14:19.018Z,99.90
2017-05-24T17:16:47.534Z,99.90
2017-05-24T17:19:16.034Z,99.90
2017-05-24T17:21:44.583Z,99.90
2017-05-24T17:24:13.088Z,99.90
2017-05-24T17:26:41.584Z,99.90
2017-05-24T17:29:10.141Z,99.90
2017-05-24T17:31:38.650Z,99.90
2017-05-24T17:34:07.143Z,99.90
2017-05-24T17:36:35.695Z,99.90
2017-05-24T17:39:04.207Z,99.90
2017-05-24T17:41:32.712Z,99.90
2017-05-24T17:44:01.252Z,99.90
2017-05-24T17:46:29.747Z,99.90
2017-05-24T17:48:58.257Z,99.90
2017-05-24T17:51:26.808Z,99.90
2017-05-24T17:53:55.317Z,99.90
2017-05-24T17:56:23.824Z,99.90
2017-05-24T17:58:52.364Z,99.90
2017-05-24T18:01:22.006Z,99.90
2017-05-24T18:03:58.547Z,99.90
2017-05-24T18:06:27.377Z,99.90
2017-05-24T18:08:57.287Z,99.90
2017-05-24T18:11:25.896Z,99.90
2017-05-24T18:13:54.459Z,99.90
2017-05-24T18:16:23.009Z,99.90
2017-05-24T18:18:51.512Z,99.90
2017-05-24T18:21:20.192Z,99.90
2017-05-24T18:23:48.793Z,99.90
2017-05-24T18:26:17.637Z,99.90
2017-05-24T18:28:46.163Z,99.90
2017-05-24T18:31:14.709Z,99.90
2017-05-24T18:33:43.216Z,99.90
2017-05-24T18:36:11.722Z,99.90
2017-05-24T18:38:40.275Z,99.90
2017-05-24T18:41:08.780Z,99.90
2017-05-24T18:43:37.286Z,99.90
2017-05-24T18:46:05.829Z,99.90
2017-05-24T18:48:34.342Z,99.90
2017-05-24T18:51:02.852Z,99.90
2017-05-24T18:53:31.398Z,99.90
2017-05-24T18:55:59.908Z,99.90
2017-05-24T18:58:28.413Z,99.90
2017-05-24T19:00:57.456Z,99.90
2017-05-24T19:03:26.001Z,99.90
2017-05-24T19:05:54.516Z,99.90
2017-05-24T19:08:23.063Z,99.90
2017-05-24T19:10:51.573Z,99.90
2017-05-24T19:13:20.081Z,99.90
2017-05-24T19:15:48.630Z,99.90
2017-05-24T19:18:17.137Z,99.90
2017-05-24T19:20:45.653Z,99.90
2017-05-24T19:23:14.206Z,99.90
2017-05-24T19:25:42.717Z,99.90
2017-05-24T19:28:17.106Z,99.90
2017-05-24T19:30:45.902Z,99.90
2017-05-24T19:33:14.586Z,99.90
2017-05-24T19:35:43.101Z,99.90
2017-05-24T19:38:11.660Z,99.90
2017-05-24T19:40:40.176Z,99.90
2017-05-24T19:43:08.696Z,99.90
2017-05-24T19:45:37.245Z,99.90
2017-05-24T19:48:05.776Z,99.90
2017-05-24T19:50:34.288Z,99.90
2017-05-24T19:53:02.856Z,99.90
2017-05-24T19:55:31.408Z,99.90
2017-05-24T19:58:00.178Z,99.90
2017-05-24T20:00:29.430Z,99.90
2017-05-24T20:02:58.068Z,99.90
2017-05-24T20:05:26.600Z,99.90
2017-05-24T20:07:55.178Z,99.90
2017-05-24T20:10:23.828Z,99.90
2017-05-24T20:12:52.348Z,99.90
2017-05-24T20:15:20.911Z,99.90
2017-05-24T20:17:49.472Z,99.90
2017-05-24T20:20:17.980Z,99.90
2017-05-24T20:22:46.569Z,99.90
2017-05-24T20:25:15.076Z,99.90
2017-05-24T20:27:43.588Z,99.90
2017-05-24T20:30:12.152Z,99.90
2017-05-24T20:32:40.663Z,99.90
2017-05-24T20:35:09.230Z,99.90
2017-05-24T20:37:37.784Z,99.90
2017-05-24T20:40:06.296Z,99.90
2017-05-24T20:42:34.868Z,99.90
2017-05-24T20:45:03.611Z,99.90
2017-05-24T20:47:32.125Z,99.90
2017-05-24T20:50:00.640Z,99.90
2017-05-24T20:52:29.196Z,99.90
2017-05-24T20:54:57.737Z,99.90
2017-05-24T20:57:26.266Z,99.90
2017-05-24T20:59:54.919Z,99.90
2017-05-24T21:02:23.467Z,99.90
2017-05-24T21:04:51.983Z,99.90
2017-05-24T21:07:20.543Z,99.90
2017-05-24T21:09:49.107Z,99.90
2017-05-24T21:12:17.615Z,99.90
2017-05-24T21:14:46.197Z,99.90
2017-05-24T21:17:14.711Z,99.90
2017-05-24T21:19:43.228Z,99.90
2017-05-24T21:22:11.808Z,99.90
2017-05-24T21:24:40.326Z,99.90
2017-05-24T21:27:08.964Z,99.90
2017-05-24T21:29:37.543Z,99.90
2017-05-24T21:32:06.071Z,99.90
2017-05-24T21:34:34.662Z,99.90
2017-05-24T21:37:03.213Z,99.90
2017-05-24T21:39:32.008Z,99.90
2017-05-24T21:42:00.655Z,99.90
2017-05-24T21:44:29.283Z,99.90
2017-05-24T21:46:57.852Z,99.90
2017-05-24T21:49:26.497Z,99.90
2017-05-24T21:51:55.048Z,99.90
2017-05-24T21:54:23.557Z,99.90
2017-05-24T21:56:52.082Z,99.90
2017-05-24T21:59:20.714Z,99.90
2017-05-24T22:01:49.297Z,99.90
2017-05-24T22:04:17.816Z,99.90
2017-05-24T22:06:46.390Z,99.90
2017-05-24T22:09:14.895Z,99.90
2017-05-24T22:11:43.399Z,99.90
2017-05-24T22:14:11.972Z,99.90
2017-05-24T22:16:40.507Z,99.90
2017-05-24T22:19:09.012Z,99.90
2017-05-24T22:21:37.568Z,99.90
2017-05-24T22:24:06.087Z,99.90
2017-05-24T22:26:34.590Z,99.90
2017-05-24T22:29:03.149Z,99.90
2017-05-24T22:31:31.653Z,99.90
2017-05-24T22:34:00.159Z,99.90
2017-05-24T22:36:28.716Z,99.90
2017-05-24T22:38:57.218Z,99.90
2017-05-24T22:41:25.724Z,99.90
2017-05-24T22:43:54.270Z,99.90
2017-05-24T22:46:22.776Z,99.90
2017-05-24T22:48:51.280Z,99.90
2017-05-24T22:51:19.833Z,99.90
2017-05-24T22:53:48.338Z,99.90
2017-05-24T22:56:16.849Z,99.90
2017-05-24T22:58:45.400Z,99.90
2017-05-24T23:01:13.911Z,99.90
2017-05-24T23:03:42.420Z,99.90
2017-05-24T23:06:10.985Z,99.90
2017-05-24T23:08:39.492Z,99.90
2017-05-24T23:11:07.996Z,99.90
2017-05-24T23:13:36.701Z,99.90
2017-05-24T23:16:05.216Z,99.90
2017-05-24T23:18:33.723Z,99.90
2017-05-24T23:21:02.276Z,99.90
2017-05-24T23:23:30.779Z,99.90
2017-05-24T23:25:59.284Z,99.90
2017-05-24T23:28:27.834Z,99.90
2017-05-24T23:30:56.333Z,99.90
2017-05-24T23:33:24.834Z,99.90
2017-05-24T23:35:53.379Z,99.90
2017-05-24T23:38:21.890Z,99.90
2017-05-24T23:40:50.412Z,99.90
2017-05-24T23:43:18.956Z,99.90
2017-05-24T23:45:47.469Z,99.90
2017-05-24T23:48:15.980Z,99.90
2017-05-24T23:50:44.525Z,99.90
2017-05-24T23:53:13.023Z,99.90
2017-05-24T23:55:41.523Z,99.90
2017-05-24T23:58:10.066Z,99.90
